Camp Roberts, California
Current Conditions -  °F | °C
As of 7:53 PM on Saturday 25 Oct 2014 (Local Time) from KPRB Reporting Station
Clear Clear  
Wind Chill: 65°   Ceiling: Unl
Heat Index: 65°   Visibility: 10mi
Dew Point: 49°   Wind: 12mph
Humidity: 56%   Direction: 320°NW
Pressure: 30.07"   Gusts: NA
Location:  35.7552°N, 120.63°W
Report Text: KPRB 260253Z AUTO 32010KT 10SM CLR 18/09 A3007 RMK AO2 SLP180 T01830094 53008 TSNO
Loading
Personal Weather Stations






























Interactive Weather Map
Tropical Storm Tracking
New forecast layout! Learn more

10-Day Weather Forecast

Advertisements
Track Severe Weather on mobile